Time;durP1;ratioP1;P1;durP2;ratioP2;P2;SDS_P1;SDS_P2;PMS_P1;PMS_P2;Temp;Humidity;BMP_temperature;BMP_pressure;BME280_temperature;BME280_humidity;BME280_pressure;Samples;Min_cycle;Max_cycle;Signal;HPM_P1;HPM_P2
2024/01/12 00:05:07;;;;;;;77.30;34.00;;;;;;;-3.08;100.00;99760.98;272433;1276;22229;-84
2024/01/12 00:11:49;;;;;;;78.50;34.80;;;;;;;-3.07;100.00;99763.86;272516;1276;22190;-84
2024/01/12 00:18:53;;;;;;;77.10;33.90;;;;;;;-3.04;100.00;99773.45;272217;1275;22192;-83
2024/01/12 00:25:35;;;;;;;79.90;33.30;;;;;;;-3.02;100.00;99784.92;272493;1279;22938;-84
2024/01/12 00:32:59;;;;;;;84.50;34.20;;;;;;;-3.04;100.00;99790.39;272417;1277;22264;-85
2024/01/12 00:39:03;;;;;;;73.00;33.80;;;;;;;-3.06;100.00;99795.75;272494;1280;22224;-84
2024/01/12 00:45:05;;;;;;;85.80;37.00;;;;;;;-3.03;100.00;99793.02;272479;1277;23818;-84
2024/01/12 00:51:48;;;;;;;75.30;33.70;;;;;;;-3.03;100.00;99791.63;272549;1277;22275;-84
2024/01/12 00:58:50;;;;;;;80.80;35.10;;;;;;;-3.09;100.00;99797.34;272588;1281;22919;-84
2024/01/12 01:05:12;;;;;;;68.90;32.40;;;;;;;-3.17;100.00;99806.06;272507;1263;22436;-84
2024/01/12 01:11:35;;;;;;;82.50;36.10;;;;;;;-3.30;100.00;99803.31;270648;1275;22244;-84
2024/01/12 01:17:57;;;;;;;84.20;36.00;;;;;;;-3.37;100.00;99804.27;272475;1280;22251;-85
2024/01/12 01:24:13;;;;;;;80.70;33.60;;;;;;;-3.37;100.00;99799.88;269405;1264;22578;-85
2024/01/12 01:30:15;;;;;;;73.90;33.40;;;;;;;-3.36;100.00;99799.93;270626;1278;22217;-85
2024/01/12 01:36:37;;;;;;;81.70;37.20;;;;;;;-3.35;100.00;99798.55;272316;1275;25332;-84
2024/01/12 01:42:39;;;;;;;77.20;34.00;;;;;;;-3.37;100.00;99798.65;269989;1274;24216;-84
2024/01/12 01:48:49;;;;;;;73.90;34.30;;;;;;;-3.43;100.00;99802.28;271999;1281;22175;-84
2024/01/12 01:54:53;;;;;;;74.70;33.60;;;;;;;-3.47;100.00;99801.23;272142;1276;22358;-84
2024/01/12 02:01:10;;;;;;;84.30;34.60;;;;;;;-3.46;100.00;99800.50;272176;1275;22543;-84
2024/01/12 02:07:33;;;;;;;79.00;33.50;;;;;;;-3.41;100.00;99787.83;272287;1283;22229;-83
2024/01/12 02:13:34;;;;;;;88.10;38.20;;;;;;;-3.36;100.00;99784.36;272300;1276;23527;-85
2024/01/12 02:19:37;;;;;;;94.80;40.90;;;;;;;-3.31;100.00;99795.83;272578;1281;23521;-84
2024/01/12 02:26:03;;;;;;;86.70;36.60;;;;;;;-3.26;100.00;99795.61;270575;1277;22556;-84
2024/01/12 02:38:28;;;;;;;72.30;35.10;;;;;;;-3.24;100.00;99796.58;272036;1274;22393;-84
2024/01/12 02:44:29;;;;;;;76.00;35.40;;;;;;;-3.20;100.00;99797.23;272384;1277;22661;-83
2024/01/12 02:50:31;;;;;;;81.80;35.20;;;;;;;-3.16;100.00;99800.45;272446;1270;22220;-84
2024/01/12 02:56:33;;;;;;;75.10;32.50;;;;;;;-3.15;100.00;99801.20;272383;1277;22957;-83
2024/01/12 03:02:34;;;;;;;75.90;32.00;;;;;;;-3.14;100.00;99800.11;271150;1276;23155;-84
2024/01/12 03:08:36;;;;;;;70.20;30.70;;;;;;;-3.15;100.00;99809.55;272553;1277;22214;-84
2024/01/12 03:14:38;;;;;;;65.90;29.40;;;;;;;-3.13;100.00;99810.20;272478;1280;22228;-84
2024/01/12 03:20:39;;;;;;;68.60;30.60;;;;;;;-3.15;100.00;99796.45;272299;1277;22216;-84
2024/01/12 03:26:41;;;;;;;74.00;35.00;;;;;;;-3.14;100.00;99797.67;272333;1276;22317;-84
2024/01/12 03:32:43;;;;;;;79.30;37.10;;;;;;;-3.10;100.00;99798.21;271850;1277;22600;-84
2024/01/12 03:38:45;;;;;;;77.20;34.50;;;;;;;-3.07;100.00;99802.01;272007;1275;22593;-86
2024/01/12 03:44:48;;;;;;;62.30;28.50;;;;;;;-3.06;100.00;99814.23;271865;1280;22983;-84
2024/01/12 03:51:01;;;;;;;56.40;27.30;;;;;;;-3.06;100.00;99819.42;272663;1277;22210;-84
2024/01/12 03:57:03;;;;;;;66.00;30.50;;;;;;;-3.06;100.00;99827.88;272151;1282;22320;-84
2024/01/12 04:03:05;;;;;;;61.60;30.90;;;;;;;-3.01;100.00;99838.61;272529;1277;22317;-84
2024/01/12 04:09:10;;;;;;;69.50;33.40;;;;;;;-3.01;100.00;99840.16;272691;1276;22206;-83
2024/01/12 04:15:12;;;;;;;67.70;31.60;;;;;;;-3.01;100.00;99841.92;272446;1275;22286;-84
2024/01/12 04:21:37;;;;;;;62.10;29.80;;;;;;;-3.03;100.00;99843.43;272441;1275;23255;-84
2024/01/12 04:27:38;;;;;;;57.20;28.00;;;;;;;-3.10;100.00;99852.36;272213;1270;22592;-84
2024/01/12 04:33:40;;;;;;;66.10;31.10;;;;;;;-3.15;100.00;99862.74;272384;1276;22442;-85
2024/01/12 04:39:42;;;;;;;60.60;27.50;;;;;;;-3.16;100.00;99857.27;272366;1275;22348;-84
2024/01/12 04:45:45;;;;;;;61.50;31.10;;;;;;;-3.24;100.00;99848.69;271893;1274;22410;-84
2024/01/12 04:51:50;;;;;;;59.00;28.30;;;;;;;-3.30;100.00;99840.48;272752;1282;22203;-84
2024/01/12 04:57:52;;;;;;;58.50;29.60;;;;;;;-3.40;100.00;99841.54;270595;1274;22287;-84
2024/01/12 05:03:54;;;;;;;70.20;35.10;;;;;;;-3.41;100.00;99849.89;271073;1277;23071;-85
2024/01/12 05:10:03;;;;;;;61.50;30.20;;;;;;;-3.33;100.00;99848.98;272335;1274;22248;-84
2024/01/12 05:16:05;;;;;;;64.40;31.50;;;;;;;-3.26;100.00;99851.58;272211;1275;22409;-84
2024/01/12 05:22:07;;;;;;;71.90;31.80;;;;;;;-3.23;100.00;99853.14;272483;1276;22342;-84
2024/01/12 05:28:09;;;;;;;74.80;35.00;;;;;;;-3.19;100.00;99854.66;272484;1269;22886;-84
2024/01/12 05:34:11;;;;;;;77.30;35.60;;;;;;;-3.17;100.00;99864.52;272570;1275;22452;-83
2024/01/12 05:40:12;;;;;;;77.70;35.50;;;;;;;-3.14;100.00;99871.11;272384;1277;23455;-84
2024/01/12 05:46:14;;;;;;;85.60;38.50;;;;;;;-3.10;100.00;99874.70;272482;1276;22910;-84
2024/01/12 05:52:16;;;;;;;86.70;38.80;;;;;;;-3.08;100.00;99877.16;272455;1271;22242;-84
2024/01/12 05:58:33;;;;;;;79.90;38.80;;;;;;;-3.07;100.00;99875.19;272379;1275;22305;-84
2024/01/12 06:04:35;;;;;;;79.40;38.10;;;;;;;-3.07;100.00;99872.56;272473;1261;22220;-84
2024/01/12 06:10:37;;;;;;;82.40;37.80;;;;;;;-3.06;100.00;99877.08;272437;1276;22264;-85
2024/01/12 06:16:39;;;;;;;75.10;37.70;;;;;;;-3.07;100.00;99876.69;272463;1278;23204;-84
2024/01/12 06:22:41;;;;;;;75.70;35.70;;;;;;;-3.07;100.00;99881.30;272397;1273;22247;-84
2024/01/12 06:28:42;;;;;;;74.80;36.90;;;;;;;-3.11;100.00;99890.70;272325;1277;22973;-83
2024/01/12 06:34:44;;;;;;;78.80;36.70;;;;;;;-3.19;100.00;99903.77;272337;1263;23665;-83
2024/01/12 06:40:46;;;;;;;82.60;38.00;;;;;;;-3.28;100.00;99914.19;272282;1275;22968;-83
2024/01/12 06:46:48;;;;;;;71.10;36.40;;;;;;;-3.33;100.00;99922.14;272402;1279;23296;-83
2024/01/12 06:52:50;;;;;;;85.60;38.40;;;;;;;-3.35;100.00;99926.40;272429;1277;23207;-83
2024/01/12 06:58:52;;;;;;;83.90;38.80;;;;;;;-3.32;100.00;99931.88;272325;1275;22254;-83
2024/01/12 07:04:54;;;;;;;69.60;34.30;;;;;;;-3.26;100.00;99937.73;272222;1275;23853;-83
2024/01/12 07:11:11;;;;;;;76.30;33.60;;;;;;;-3.18;100.00;99940.94;272721;1277;22208;-83
2024/01/12 07:17:13;;;;;;;67.90;31.80;;;;;;;-3.11;100.00;99946.27;270605;1274;22221;-83
2024/01/12 07:23:14;;;;;;;74.60;35.80;;;;;;;-3.02;100.00;99946.39;272553;1275;23437;-83
2024/01/12 07:29:16;;;;;;;71.50;33.50;;;;;;;-2.92;100.00;99947.77;272491;1274;22888;-83
2024/01/12 07:35:18;;;;;;;64.90;29.00;;;;;;;-2.87;100.00;99952.22;272466;1277;23112;-83
2024/01/12 07:41:20;;;;;;;54.40;25.00;;;;;;;-2.83;100.00;99953.03;272530;1264;22225;-84
2024/01/12 07:47:23;;;;;;;54.80;21.40;;;;;;;-2.76;100.00;99949.79;271112;1274;22536;-84
2024/01/12 07:53:27;;;;;;;32.90;15.60;;;;;;;-2.63;100.00;99945.25;270550;1277;24340;-83
2024/01/12 07:59:30;;;;;;;23.80;12.30;;;;;;;-2.52;100.00;99934.65;269566;1275;22582;-84
2024/01/12 08:05:34;;;;;;;16.20;8.40;;;;;;;-2.44;100.00;99931.86;270122;1274;22565;-85
2024/01/12 08:11:36;;;;;;;24.40;11.00;;;;;;;-2.31;100.00;99933.80;269222;1275;23340;-85
2024/01/12 08:17:38;;;;;;;30.10;12.80;;;;;;;-2.13;100.00;99933.95;270650;1276;22734;-84
2024/01/12 08:23:40;;;;;;;25.30;12.80;;;;;;;-2.04;100.00;99928.36;270589;1275;23610;-85
2024/01/12 08:29:42;;;;;;;22.60;9.60;;;;;;;-2.03;100.00;99924.46;272590;1275;22288;-85
2024/01/12 08:35:46;;;;;;;21.60;9.80;;;;;;;-2.01;100.00;99928.59;272434;1271;22389;-85
2024/01/12 08:41:49;;;;;;;24.70;10.80;;;;;;;-2.05;100.00;99936.36;272501;1275;22428;-85
2024/01/12 08:47:53;;;;;;;28.30;12.80;;;;;;;-1.97;100.00;99939.25;272475;1275;22320;-85
2024/01/12 08:54:16;;;;;;;29.60;14.50;;;;;;;-1.82;100.00;99947.71;271001;1274;22341;-86
2024/01/12 09:00:39;;;;;;;32.80;13.30;;;;;;;-1.75;100.00;99960.64;271496;1276;22567;-85
2024/01/12 09:06:41;;;;;;;31.90;14.00;;;;;;;-1.68;100.00;99965.35;271161;1277;22427;-86
2024/01/12 09:12:50;;;;;;;27.90;13.70;;;;;;;-1.68;100.00;99973.55;271566;1277;22233;-86
2024/01/12 09:19:03;;;;;;;;;;;;;;;-1.72;100.00;99981.95;271557;1276;22621;-85
2024/01/12 09:25:08;;;;;;;38.10;17.10;;;;;;;-1.67;100.00;99985.48;271527;1275;22882;-86
2024/01/12 09:31:10;;;;;;;31.20;13.40;;;;;;;-1.50;100.00;99993.13;272575;1282;151142;-85
2024/01/12 09:37:12;;;;;;;26.90;12.10;;;;;;;-1.22;100.00;100003.25;271106;1274;22634;-85
2024/01/12 09:43:14;;;;;;;18.20;9.00;;;;;;;-1.19;100.00;100006.96;270432;1275;22555;-86
2024/01/12 09:49:17;;;;;;;25.20;10.10;;;;;;;-1.28;100.00;100009.94;271672;1279;23434;-85
2024/01/12 09:55:19;;;;;;;21.10;10.50;;;;;;;-1.37;100.00;100011.67;271218;1277;22586;-85
2024/01/12 10:01:21;;;;;;;22.60;8.20;;;;;;;-1.35;100.00;100008.50;272236;1277;22260;-86
2024/01/12 10:07:23;;;;;;;12.40;6.70;;;;;;;-1.46;100.00;100006.86;270728;1282;22277;-86
2024/01/12 10:13:42;;;;;;;14.70;6.90;;;;;;;-1.68;100.00;100001.36;272534;1277;22268;-86
2024/01/12 10:19:44;;;;;;;14.10;6.40;;;;;;;-1.22;100.00;99993.14;272442;1277;23318;-86
2024/01/12 10:25:56;;;;;;;12.30;5.90;;;;;;;-0.67;100.00;99985.33;272577;1279;22987;-86
2024/01/12 10:32:01;;;;;;;15.60;7.00;;;;;;;-0.36;99.94;99981.46;272432;1275;22435;-86
2024/01/12 10:38:04;;;;;;;22.20;10.00;;;;;;;-0.15;99.77;99979.70;272465;1280;22337;-86
2024/01/12 10:44:09;;;;;;;18.30;8.20;;;;;;;-0.23;99.09;99983.63;271278;1275;22560;-86
2024/01/12 10:50:16;;;;;;;19.50;8.00;;;;;;;-0.23;99.11;99961.05;271517;1275;22218;-86
2024/01/12 10:56:35;;;;;;;24.20;8.50;;;;;;;-0.27;97.98;99959.61;272231;1276;22421;-87
2024/01/12 11:02:38;;;;;;;18.00;7.80;;;;;;;-0.45;96.59;99965.88;271531;1278;22203;-87
2024/01/12 11:08:40;;;;;;;20.50;8.50;;;;;;;-0.52;97.13;99958.23;269541;1275;24649;-87
2024/01/12 11:14:45;;;;;;;25.30;10.40;;;;;;;-0.46;97.84;99948.62;271179;1274;22567;-88
2024/01/12 11:20:48;;;;;;;24.40;10.30;;;;;;;-0.38;97.18;99936.35;272211;1275;22319;-87
2024/01/12 11:26:50;;;;;;;22.70;9.10;;;;;;;-0.30;96.86;99931.28;271692;1277;22412;-87
2024/01/12 11:33:03;;;;;;;31.50;12.20;;;;;;;-0.26;97.02;99930.23;272534;1275;22468;-87
2024/01/12 11:39:12;;;;;;;19.10;9.30;;;;;;;-0.29;96.64;99921.37;272364;1274;22181;-87
2024/01/12 11:45:13;;;;;;;20.50;9.40;;;;;;;-0.40;96.37;99903.48;272250;1276;22316;-87
2024/01/12 11:51:22;;;;;;;36.80;16.40;;;;;;;-0.42;96.53;99887.58;272391;1275;22307;-88
2024/01/12 11:57:25;;;;;;;34.30;12.00;;;;;;;-0.41;97.00;99877.23;270577;1277;22205;-87
2024/01/12 12:03:27;;;;;;;29.30;11.40;;;;;;;-0.40;96.81;99869.52;270782;1275;22560;-87
2024/01/12 12:09:29;;;;;;;30.50;14.60;;;;;;;-0.34;97.46;99864.16;272037;1277;22419;-87
2024/01/12 12:15:31;;;;;;;34.80;15.70;;;;;;;-0.22;97.65;99848.27;272190;1275;22378;-88
2024/01/12 12:21:35;;;;;;;30.90;14.80;;;;;;;-0.09;98.35;99833.57;271976;1274;22640;-87
2024/01/12 12:27:38;;;;;;;21.20;10.10;;;;;;;0.03;98.46;99822.45;270191;1276;22231;-88
2024/01/12 12:33:44;;;;;;;23.20;10.70;;;;;;;-0.11;96.34;99811.03;269819;1276;22581;-87
2024/01/12 12:39:46;;;;;;;21.20;9.40;;;;;;;-0.27;95.42;99815.11;270262;1277;22222;-90
2024/01/12 12:45:54;;;;;;;25.70;10.40;;;;;;;-0.29;95.06;99811.44;272326;1277;22972;-87
2024/01/12 12:51:58;;;;;;;28.90;12.30;;;;;;;-0.20;95.41;99805.38;271484;1277;22326;-87
2024/01/12 12:58:00;;;;;;;24.30;10.10;;;;;;;-0.24;94.99;99810.14;272402;1282;22223;-87
2024/01/12 13:04:03;;;;;;;25.90;9.30;;;;;;;-0.34;94.92;99813.60;271731;1275;22417;-87
2024/01/12 13:10:05;;;;;;;22.90;9.50;;;;;;;-0.34;95.45;99817.35;272419;1282;22192;-87
2024/01/12 13:16:07;;;;;;;29.70;11.30;;;;;;;-0.38;95.50;99809.85;272659;1276;23295;-85
2024/01/12 13:22:10;;;;;;;26.40;13.00;;;;;;;-0.45;95.41;99798.20;271523;1275;25430;-88
2024/01/12 13:28:13;;;;;;;38.00;14.30;;;;;;;-0.46;95.50;99794.00;272515;1281;22993;-87
2024/01/12 13:34:15;;;;;;;27.50;12.70;;;;;;;-0.38;96.16;99791.67;272675;1279;22197;-87
2024/01/12 13:40:17;;;;;;;25.80;13.20;;;;;;;-0.47;95.32;99784.17;272019;1281;22246;-87
2024/01/12 13:46:19;;;;;;;22.50;12.50;;;;;;;-0.59;95.58;99786.83;272479;1279;22454;-88
2024/01/12 13:52:21;;;;;;;31.00;14.00;;;;;;;-0.65;96.09;99779.98;271546;1275;22359;-88
2024/01/12 13:58:24;;;;;;;30.60;14.00;;;;;;;-0.69;96.12;99786.04;272188;1275;22412;-87
2024/01/12 14:04:26;;;;;;;33.50;13.80;;;;;;;-0.76;96.23;99786.22;272464;1283;22227;-86
2024/01/12 14:10:29;;;;;;;31.90;14.50;;;;;;;-0.81;96.20;99795.23;272208;1264;22200;-87
2024/01/12 14:16:31;;;;;;;35.30;17.10;;;;;;;-0.86;96.49;99796.41;271970;1281;22220;-87
2024/01/12 14:22:34;;;;;;;33.10;15.90;;;;;;;-0.92;96.86;99774.14;272370;1275;22357;-87
2024/01/12 14:28:36;;;;;;;37.00;16.40;;;;;;;-0.99;96.62;99782.76;271580;1279;22563;-87
2024/01/12 14:34:40;;;;;;;33.90;15.30;;;;;;;-1.06;96.86;99796.99;270814;1277;22356;-88
2024/01/12 14:40:43;;;;;;;27.30;13.60;;;;;;;-1.12;97.02;99792.23;272224;1283;22355;-87
2024/01/12 14:46:52;;;;;;;28.20;13.90;;;;;;;-1.19;97.03;99796.17;271391;1279;22216;-88
2024/01/12 14:52:54;;;;;;;30.60;14.70;;;;;;;-1.24;97.34;99790.13;270974;1274;22569;-87
2024/01/12 14:59:17;;;;;;;37.10;16.60;;;;;;;-1.26;97.67;99774.18;270045;1278;22561;-87
2024/01/12 15:05:19;;;;;;;49.20;21.00;;;;;;;-1.27;98.28;99766.45;272131;1275;23303;-88
2024/01/12 15:11:23;;;;;;;54.90;20.10;;;;;;;-1.31;98.71;99767.77;271088;1274;22193;-87
2024/01/12 15:17:24;;;;;;;53.10;22.20;;;;;;;-1.37;99.09;99767.32;272744;1277;22221;-87
2024/01/12 15:23:34;;;;;;;60.10;21.90;;;;;;;-1.44;99.23;99773.70;272507;1277;23012;-87
2024/01/12 15:29:35;;;;;;;44.30;19.10;;;;;;;-1.51;99.65;99798.23;272542;1280;22196;-87
2024/01/12 15:35:44;;;;;;;43.70;18.30;;;;;;;-1.57;99.90;99794.98;272252;1279;22216;-87
2024/01/12 15:41:46;;;;;;;44.90;21.00;;;;;;;-1.63;100.00;99782.35;270537;1277;22580;-86
2024/01/12 15:47:48;;;;;;;59.70;21.30;;;;;;;-1.71;100.00;99785.17;269351;1275;23535;-87
2024/01/12 15:53:50;;;;;;;59.80;21.80;;;;;;;-1.74;100.00;99785.66;272280;1275;23520;-87
2024/01/12 15:59:52;;;;;;;45.90;20.70;;;;;;;-1.75;100.00;99779.82;269352;1274;23319;-86
2024/01/12 16:05:54;;;;;;;61.50;21.40;;;;;;;-1.76;100.00;99764.77;269385;1277;22543;-85
2024/01/12 16:11:55;;;;;;;42.60;19.50;;;;;;;-1.81;100.00;99760.10;270012;1280;23203;-87
2024/01/12 16:17:58;;;;;;;52.90;21.50;;;;;;;-1.84;100.00;99751.26;272471;1279;22255;-88
2024/01/12 16:24:01;;;;;;;50.80;21.60;;;;;;;-1.86;100.00;99738.61;272151;1266;22490;-86
2024/01/12 16:30:05;;;;;;;49.70;21.70;;;;;;;-1.92;100.00;99736.21;272571;1273;22193;-87
2024/01/12 16:36:07;;;;;;;50.90;19.60;;;;;;;-1.93;100.00;99735.58;272051;1275;22577;-85
2024/01/12 16:42:09;;;;;;;41.60;17.60;;;;;;;-1.91;100.00;99733.85;271034;1276;22282;-86
2024/01/12 16:48:11;;;;;;;32.70;16.00;;;;;;;-1.92;100.00;99735.59;271171;1276;23472;-85
2024/01/12 16:54:17;;;;;;;45.90;18.10;;;;;;;-1.93;100.00;99734.19;271143;1268;22369;-86
2024/01/12 17:00:19;;;;;;;39.60;16.90;;;;;;;-1.96;99.98;99736.45;272630;1277;23005;-85
2024/01/12 17:06:20;;;;;;;48.30;19.60;;;;;;;-1.97;99.94;99735.64;272779;1281;22209;-85
2024/01/12 17:12:42;;;;;;;56.00;23.80;;;;;;;-2.01;99.86;99728.25;272793;1277;22951;-84
2024/01/12 17:18:44;;;;;;;60.30;26.80;;;;;;;-2.02;100.00;99717.27;269673;1276;23748;-85
2024/01/12 17:24:46;;;;;;;69.30;28.80;;;;;;;-2.01;100.00;99704.54;271346;1270;23414;-84
2024/01/12 17:30:48;;;;;;;66.10;26.40;;;;;;;-2.03;100.00;99693.93;272549;1277;22224;-84
2024/01/12 17:36:51;;;;;;;71.50;31.00;;;;;;;-2.07;100.00;99677.69;272497;1274;22187;-84
2024/01/12 17:42:53;;;;;;;77.20;31.70;;;;;;;-2.09;100.00;99674.16;272445;1277;22409;-83
2024/01/12 17:48:54;;;;;;;82.90;32.20;;;;;;;-2.10;100.00;99674.02;270780;1277;22218;-83
2024/01/12 17:54:57;;;;;;;68.20;29.90;;;;;;;-2.12;100.00;99667.09;270612;1275;22299;-84
2024/01/12 18:00:58;;;;;;;77.00;31.90;;;;;;;-2.14;100.00;99653.58;272503;1276;23505;-85
2024/01/12 18:07:01;;;;;;;77.50;31.60;;;;;;;-2.15;100.00;99636.59;272280;1277;22367;-83
2024/01/12 18:13:04;;;;;;;79.40;31.60;;;;;;;-2.17;100.00;99621.36;272147;1277;22263;-84
2024/01/12 18:19:47;;;;;;;86.60;34.10;;;;;;;-2.19;100.00;99633.70;270739;1275;22420;-84
2024/01/12 18:25:49;;;;;;;66.40;25.90;;;;;;;-2.23;100.00;99641.88;271116;1280;22635;-84
2024/01/12 18:31:51;;;;;;;65.10;27.40;;;;;;;-2.27;100.00;99642.06;271581;1274;23868;-84
2024/01/12 18:37:54;;;;;;;61.10;24.90;;;;;;;-2.30;100.00;99644.88;264685;1273;10001653;-83
2024/01/12 18:44:15;;;;;;;47.20;18.60;;;;;;;-2.31;100.00;99650.45;272319;1277;23417;-84
2024/01/12 18:50:43;;;;;;;52.80;22.30;;;;;;;-2.34;100.00;99659.85;272353;1282;22219;-84
2024/01/12 18:56:50;;;;;;;45.00;19.10;;;;;;;-2.36;100.00;99660.12;272701;1275;22195;-84
2024/01/12 19:03:17;;;;;;;43.30;18.40;;;;;;;-2.38;100.00;99646.89;272287;1283;22235;-85
2024/01/12 19:10:01;;;;;;;34.80;17.00;;;;;;;-2.40;100.00;99648.83;272473;1282;22188;-85
2024/01/12 19:16:44;;;;;;;38.80;18.40;;;;;;;-2.39;100.00;99647.33;271210;1280;22269;-85
2024/01/12 19:23:06;;;;;;;45.30;20.00;;;;;;;-2.37;100.00;99630.67;270989;1280;22584;-85
2024/01/12 19:29:46;;;;;;;44.30;18.60;;;;;;;-2.38;100.00;99605.75;270892;1281;23362;-84
2024/01/12 19:36:12;;;;;;;37.10;16.80;;;;;;;-2.39;100.00;99593.75;271787;1284;22233;-85
2024/01/12 19:42:49;;;;;;;37.60;16.30;;;;;;;-2.38;100.00;99590.26;271804;1280;22247;-85
2024/01/12 19:49:39;;;;;;;40.00;18.30;;;;;;;-2.36;100.00;99584.77;271155;1277;22503;-84
2024/01/12 19:56:29;;;;;;;37.00;16.60;;;;;;;-2.35;100.00;99574.54;272421;1276;22212;-84
2024/01/12 20:03:12;;;;;;;39.50;17.20;;;;;;;-2.35;100.00;99580.31;272232;1276;22209;-85
2024/01/12 20:10:13;;;;;;;35.40;15.90;;;;;;;-2.33;100.00;99583.41;271261;1275;22561;-85
2024/01/12 20:17:15;;;;;;;34.50;15.70;;;;;;;-2.31;100.00;99578.91;272283;1283;22247;-85
2024/01/12 20:23:59;;;;;;;36.00;15.40;;;;;;;-2.30;100.00;99575.36;271713;1278;22956;-85
2024/01/12 20:31:22;;;;;;;35.80;17.30;;;;;;;-2.29;100.00;99572.57;272430;1276;22203;-84
2024/01/12 20:38:30;;;;;;;36.20;17.40;;;;;;;-2.28;100.00;99564.30;271062;1277;22330;-86
2024/01/12 20:45:08;;;;;;;37.40;16.20;;;;;;;-2.27;100.00;99547.13;272011;1284;22357;-85
2024/01/12 20:51:59;;;;;;;31.20;15.00;;;;;;;-2.25;100.00;99541.59;272059;1267;22303;-86
2024/01/12 20:58:42;;;;;;;35.60;16.30;;;;;;;-2.25;100.00;99537.56;271843;1277;22365;-85
2024/01/12 21:05:11;;;;;;;35.90;16.70;;;;;;;-2.25;100.00;99523.78;272220;1277;22332;-85
2024/01/12 21:12:52;;;;;;;33.40;15.00;;;;;;;-2.24;100.00;99535.63;272261;1277;23258;-85
2024/01/12 21:19:44;;;;;;;34.30;16.20;;;;;;;-2.23;100.00;99539.27;269088;1286;22589;-84
2024/01/12 21:26:53;;;;;;;30.70;14.80;;;;;;;-2.21;100.00;99541.73;265493;1280;5162315;-84
2024/01/12 21:33:20;;;;;;;28.80;14.00;;;;;;;-2.22;100.00;99536.58;268913;1282;22355;-85
2024/01/12 21:39:45;;;;;;;33.50;14.70;;;;;;;-2.21;100.00;99532.01;269952;1280;22441;-85
2024/01/12 21:46:31;;;;;;;29.50;14.30;;;;;;;-2.20;100.00;99532.06;271877;1280;22307;-83
2024/01/12 21:53:16;;;;;;;28.50;13.70;;;;;;;-2.19;100.00;99529.21;271886;1280;22340;-84
2024/01/12 21:59:39;;;;;;;26.30;12.90;;;;;;;-2.18;100.00;99527.80;270602;1276;23375;-84
2024/01/12 22:06:44;;;;;;;29.90;13.10;;;;;;;-2.17;100.00;99520.46;271575;1272;22566;-85
2024/01/12 22:13:07;;;;;;;27.20;11.80;;;;;;;-2.15;100.00;99518.30;270669;1277;22271;-85
2024/01/12 22:19:45;;;;;;;26.40;13.30;;;;;;;-2.15;100.00;99519.96;272440;1281;23256;-84
2024/01/12 22:26:49;;;;;;;30.40;13.90;;;;;;;-2.14;100.00;99520.34;272699;1282;22191;-85
2024/01/12 22:33:55;;;;;;;29.80;13.90;;;;;;;-2.13;100.00;99511.14;271555;1277;22723;-86
2024/01/12 22:48:40;;;;;;;27.40;13.10;;;;;;;-2.10;100.00;99497.13;271658;1281;22143;-85
2024/01/12 22:56:01;;;;;;;28.30;14.10;;;;;;;-2.09;100.00;99485.30;268523;1278;23673;-85
2024/01/12 23:02:52;;;;;;;34.30;15.00;;;;;;;-2.08;100.00;99481.76;270126;1276;22620;-85
2024/01/12 23:09:37;;;;;;;28.10;13.30;;;;;;;-2.07;100.00;99470.16;270746;1277;22527;-85
2024/01/12 23:16:24;;;;;;;28.70;14.40;;;;;;;-2.07;100.00;99464.59;271454;1280;22214;-84
2024/01/12 23:22:27;;;;;;;36.00;16.00;;;;;;;-2.06;100.00;99459.59;272609;1282;22228;-84
2024/01/12 23:28:53;;;;;;;35.40;16.10;;;;;;;-2.05;100.00;99450.79;272572;1281;22892;-84
2024/01/12 23:36:12;;;;;;;35.00;17.30;;;;;;;-2.04;100.00;99450.61;272282;1275;23187;-85
2024/01/12 23:42:36;;;;;;;29.10;14.90;;;;;;;-2.07;100.00;99435.45;272897;1281;22197;-85
2024/01/12 23:49:41;;;;;;;32.10;16.60;;;;;;;-2.06;100.00;99425.52;272606;1275;23193;-84
2024/01/12 23:56:03;;;;;;;34.20;16.70;;;;;;;-2.04;100.00;99423.41;272697;1277;22253;-85
